createdAt,value
2023-03-22T00:00:30.790Z,6.33
2023-03-22T00:10:32.610Z,6.13
2023-03-22T00:20:36.007Z,6.47
2023-03-22T00:30:37.721Z,7.83
2023-03-22T00:40:40.293Z,6.63
2023-03-22T00:50:41.955Z,5.70
2023-03-22T01:00:44.949Z,5.53
2023-03-22T01:10:46.631Z,5.80
2023-03-22T01:20:48.020Z,5.97
2023-03-22T01:30:50.966Z,6.37
2023-03-22T01:40:52.407Z,6.00
2023-03-22T01:51:02.985Z,6.53
2023-03-22T02:01:06.352Z,6.00
2023-03-22T02:11:11.239Z,6.30
2023-03-22T02:21:18.487Z,5.85
2023-03-22T02:31:26.088Z,6.03
2023-03-22T02:41:45.998Z,6.70
2023-03-22T02:51:55.718Z,5.80
2023-03-22T03:02:00.898Z,5.65
2023-03-22T03:12:02.470Z,6.37
2023-03-22T03:22:14.164Z,6.07
2023-03-22T03:32:28.433Z,6.10
2023-03-22T03:42:30.476Z,6.37
2023-03-22T03:52:32.302Z,6.30
2023-03-22T04:02:35.240Z,6.05
2023-03-22T04:12:36.802Z,6.45
2023-03-22T04:22:38.952Z,5.77
2023-03-22T04:32:40.392Z,6.53
2023-03-22T04:42:43.180Z,6.30
2023-03-22T04:52:44.553Z,4.70
2023-03-22T05:02:46.020Z,5.63
2023-03-22T05:12:47.723Z,6.50
2023-03-22T05:22:50.582Z,4.87
2023-03-22T05:32:57.270Z,5.70
2023-03-22T05:42:58.880Z,6.10
2023-03-22T05:53:00.707Z,5.35
2023-03-22T06:03:03.863Z,5.00
2023-03-22T06:13:05.521Z,5.67
2023-03-22T06:23:07.854Z,4.40
2023-03-22T06:33:09.426Z,4.47
2023-03-22T06:43:10.955Z,4.33
2023-03-22T06:53:12.366Z,4.70
2023-03-22T07:03:13.832Z,3.67
2023-03-22T07:13:15.250Z,2.70
2023-03-22T07:23:17.516Z,3.58
2023-03-22T07:33:18.893Z,3.70
2023-03-22T07:43:21.213Z,3.70
2023-03-22T07:53:22.753Z,2.47
2023-03-22T08:03:24.344Z,2.28
2023-03-22T08:13:25.913Z,1.90
2023-03-22T08:23:40.470Z,2.20
2023-03-22T08:33:43.382Z,1.90
2023-03-22T08:43:44.894Z,1.70
2023-03-22T08:53:47.506Z,1.87
2023-03-22T09:03:48.984Z,1.42
2023-03-22T09:13:51.238Z,1.70
2023-03-22T09:23:52.625Z,2.27
2023-03-22T09:33:54.005Z,2.10
2023-03-22T09:43:59.658Z,2.42
2023-03-22T09:54:01.803Z,2.43
2023-03-22T10:04:34.389Z,1.67
2023-03-22T10:14:40.294Z,1.65
2023-03-22T10:24:45.594Z,1.93
2023-03-22T10:34:47.326Z,2.73
2023-03-22T10:44:53.202Z,2.25
2023-03-22T10:54:59.070Z,1.60
2023-03-22T11:05:05.838Z,1.37
2023-03-22T11:15:20.519Z,1.50
2023-03-22T11:25:27.815Z,1.73
2023-03-22T11:35:31.201Z,1.70
2023-03-22T11:45:36.794Z,1.27
2023-03-22T11:55:38.448Z,6.70
2023-03-22T12:05:44.188Z,2.10
2023-03-22T12:15:52.684Z,2.23
2023-03-22T12:26:02.357Z,2.40
2023-03-22T12:36:06.822Z,1.70
2023-03-22T12:46:13.461Z,2.10
2023-03-22T12:56:18.967Z,2.13
2023-03-22T13:06:43.998Z,1.90
2023-03-22T13:16:56.079Z,1.90
2023-03-22T13:26:59.055Z,1.10
2023-03-22T13:37:03.591Z,2.47
2023-03-22T13:47:09.010Z,1.87
2023-03-22T13:57:38.763Z,1.63
2023-03-22T14:07:46.916Z,1.58
2023-03-22T14:17:54.079Z,1.38
